sensor_id;sensor_type;location;lat;lon;timestamp;P1;durP1;ratioP1;P2;durP2;ratioP2
22201;SDS011;11266;51.522;6.302;2023-02-15T00:00:13;19.17;;;12.75;;
22201;SDS011;11266;51.522;6.302;2023-02-15T00:01:17;21.80;;;12.90;;
22201;SDS011;11266;51.522;6.302;2023-02-15T00:02:03;19.15;;;12.68;;
22201;SDS011;11266;51.522;6.302;2023-02-15T00:02:48;17.92;;;12.07;;
22201;SDS011;11266;51.522;6.302;2023-02-15T00:03:34;19.27;;;12.38;;
22201;SDS011;11266;51.522;6.302;2023-02-15T00:04:22;18.42;;;12.35;;
22201;SDS011;11266;51.522;6.302;2023-02-15T00:05:30;20.00;;;12.45;;
22201;SDS011;11266;51.522;6.302;2023-02-15T00:06:16;20.73;;;12.88;;
22201;SDS011;11266;51.522;6.302;2023-02-15T00:07:02;18.23;;;12.32;;
22201;SDS011;11266;51.522;6.302;2023-02-15T00:07:48;18.33;;;12.75;;
22201;SDS011;11266;51.522;6.302;2023-02-15T00:08:33;20.42;;;12.77;;
22201;SDS011;11266;51.522;6.302;2023-02-15T00:09:19;20.98;;;12.35;;
22201;SDS011;11266;51.522;6.302;2023-02-15T00:10:05;20.70;;;12.85;;
22201;SDS011;11266;51.522;6.302;2023-02-15T00:10:51;19.42;;;12.73;;
22201;SDS011;11266;51.522;6.302;2023-02-15T00:11:50;19.30;;;12.25;;
22201;SDS011;11266;51.522;6.302;2023-02-15T00:12:35;18.40;;;12.93;;
22201;SDS011;11266;51.522;6.302;2023-02-15T00:13:21;18.58;;;13.15;;
22201;SDS011;11266;51.522;6.302;2023-02-15T00:14:07;21.35;;;13.13;;
22201;SDS011;11266;51.522;6.302;2023-02-15T00:15:01;20.38;;;12.93;;
22201;SDS011;11266;51.522;6.302;2023-02-15T00:15:46;19.23;;;12.55;;
22201;SDS011;11266;51.522;6.302;2023-02-15T00:16:32;21.67;;;13.27;;
22201;SDS011;11266;51.522;6.302;2023-02-15T00:17:21;20.23;;;13.20;;
22201;SDS011;11266;51.522;6.302;2023-02-15T00:18:06;19.70;;;12.75;;
22201;SDS011;11266;51.522;6.302;2023-02-15T00:18:52;19.33;;;13.65;;
22201;SDS011;11266;51.522;6.302;2023-02-15T00:19:40;21.48;;;14.18;;
22201;SDS011;11266;51.522;6.302;2023-02-15T00:20:26;19.77;;;13.57;;
22201;SDS011;11266;51.522;6.302;2023-02-15T00:21:11;22.13;;;14.18;;
22201;SDS011;11266;51.522;6.302;2023-02-15T00:21:57;20.38;;;13.40;;
22201;SDS011;11266;51.522;6.302;2023-02-15T00:22:42;20.80;;;13.40;;
22201;SDS011;11266;51.522;6.302;2023-02-15T00:23:28;21.15;;;12.45;;
22201;SDS011;11266;51.522;6.302;2023-02-15T00:24:15;20.40;;;13.18;;
22201;SDS011;11266;51.522;6.302;2023-02-15T00:25:02;22.85;;;14.30;;
22201;SDS011;11266;51.522;6.302;2023-02-15T00:25:48;21.10;;;13.88;;
22201;SDS011;11266;51.522;6.302;2023-02-15T00:26:35;20.25;;;13.20;;
22201;SDS011;11266;51.522;6.302;2023-02-15T00:27:21;21.02;;;12.20;;
22201;SDS011;11266;51.522;6.302;2023-02-15T00:28:06;20.38;;;13.05;;
22201;SDS011;11266;51.522;6.302;2023-02-15T00:28:54;22.10;;;13.45;;
22201;SDS011;11266;51.522;6.302;2023-02-15T00:29:46;20.95;;;13.02;;
22201;SDS011;11266;51.522;6.302;2023-02-15T00:30:35;25.33;;;13.18;;
22201;SDS011;11266;51.522;6.302;2023-02-15T00:31:21;22.40;;;13.00;;
22201;SDS011;11266;51.522;6.302;2023-02-15T00:32:06;20.98;;;13.18;;
22201;SDS011;11266;51.522;6.302;2023-02-15T00:32:52;18.45;;;12.80;;
22201;SDS011;11266;51.522;6.302;2023-02-15T00:33:42;19.55;;;12.10;;
22201;SDS011;11266;51.522;6.302;2023-02-15T00:34:28;19.75;;;13.68;;
22201;SDS011;11266;51.522;6.302;2023-02-15T00:35:13;20.20;;;13.18;;
22201;SDS011;11266;51.522;6.302;2023-02-15T00:35:59;21.50;;;13.60;;
22201;SDS011;11266;51.522;6.302;2023-02-15T00:36:46;24.83;;;14.75;;
22201;SDS011;11266;51.522;6.302;2023-02-15T00:37:34;25.90;;;15.80;;
22201;SDS011;11266;51.522;6.302;2023-02-15T00:38:20;23.02;;;13.80;;
22201;SDS011;11266;51.522;6.302;2023-02-15T00:39:07;22.38;;;14.02;;
22201;SDS011;11266;51.522;6.302;2023-02-15T00:39:53;19.33;;;12.55;;
22201;SDS011;11266;51.522;6.302;2023-02-15T00:40:39;19.13;;;13.60;;
22201;SDS011;11266;51.522;6.302;2023-02-15T00:41:24;19.80;;;13.32;;
22201;SDS011;11266;51.522;6.302;2023-02-15T00:42:10;20.50;;;13.27;;
22201;SDS011;11266;51.522;6.302;2023-02-15T00:42:56;21.15;;;13.48;;
22201;SDS011;11266;51.522;6.302;2023-02-15T00:43:43;21.27;;;13.23;;
22201;SDS011;11266;51.522;6.302;2023-02-15T00:44:29;22.50;;;13.57;;
22201;SDS011;11266;51.522;6.302;2023-02-15T00:45:15;18.42;;;12.27;;
22201;SDS011;11266;51.522;6.302;2023-02-15T00:46:01;19.92;;;12.93;;
22201;SDS011;11266;51.522;6.302;2023-02-15T00:46:47;22.92;;;13.20;;
22201;SDS011;11266;51.522;6.302;2023-02-15T00:47:33;19.38;;;13.07;;
22201;SDS011;11266;51.522;6.302;2023-02-15T00:48:18;21.38;;;12.95;;
22201;SDS011;11266;51.522;6.302;2023-02-15T00:49:05;20.33;;;12.52;;
22201;SDS011;11266;51.522;6.302;2023-02-15T00:49:50;19.05;;;13.02;;
22201;SDS011;11266;51.522;6.302;2023-02-15T00:50:38;18.83;;;12.75;;
22201;SDS011;11266;51.522;6.302;2023-02-15T00:51:27;19.95;;;12.32;;
22201;SDS011;11266;51.522;6.302;2023-02-15T00:52:12;18.52;;;12.85;;
22201;SDS011;11266;51.522;6.302;2023-02-15T00:52:58;18.27;;;12.43;;
22201;SDS011;11266;51.522;6.302;2023-02-15T00:53:44;22.33;;;13.23;;
22201;SDS011;11266;51.522;6.302;2023-02-15T00:54:29;18.33;;;12.98;;
22201;SDS011;11266;51.522;6.302;2023-02-15T00:55:19;22.15;;;13.90;;
22201;SDS011;11266;51.522;6.302;2023-02-15T00:56:05;18.25;;;12.60;;
22201;SDS011;11266;51.522;6.302;2023-02-15T00:56:50;19.70;;;12.48;;
22201;SDS011;11266;51.522;6.302;2023-02-15T00:57:38;19.38;;;12.77;;
22201;SDS011;11266;51.522;6.302;2023-02-15T00:58:24;20.33;;;12.88;;
22201;SDS011;11266;51.522;6.302;2023-02-15T00:59:13;20.58;;;12.90;;
22201;SDS011;11266;51.522;6.302;2023-02-15T00:59:58;18.75;;;12.68;;
22201;SDS011;11266;51.522;6.302;2023-02-15T01:00:44;20.55;;;13.05;;
22201;SDS011;11266;51.522;6.302;2023-02-15T01:01:33;19.83;;;12.90;;
22201;SDS011;11266;51.522;6.302;2023-02-15T01:02:19;21.30;;;13.30;;
22201;SDS011;11266;51.522;6.302;2023-02-15T01:03:07;18.40;;;11.85;;
22201;SDS011;11266;51.522;6.302;2023-02-15T01:03:53;18.80;;;12.32;;
22201;SDS011;11266;51.522;6.302;2023-02-15T01:04:41;22.17;;;13.13;;
22201;SDS011;11266;51.522;6.302;2023-02-15T01:05:27;20.60;;;13.13;;
22201;SDS011;11266;51.522;6.302;2023-02-15T01:06:16;19.27;;;12.63;;
22201;SDS011;11266;51.522;6.302;2023-02-15T01:07:02;17.85;;;12.50;;
22201;SDS011;11266;51.522;6.302;2023-02-15T01:07:48;19.90;;;13.05;;
22201;SDS011;11266;51.522;6.302;2023-02-15T01:08:34;21.98;;;13.98;;
22201;SDS011;11266;51.522;6.302;2023-02-15T01:09:19;20.63;;;13.20;;
22201;SDS011;11266;51.522;6.302;2023-02-15T01:10:06;23.23;;;14.88;;
22201;SDS011;11266;51.522;6.302;2023-02-15T01:10:52;20.75;;;14.00;;
22201;SDS011;11266;51.522;6.302;2023-02-15T01:11:38;22.75;;;14.23;;
22201;SDS011;11266;51.522;6.302;2023-02-15T01:12:24;20.08;;;13.23;;
22201;SDS011;11266;51.522;6.302;2023-02-15T01:13:09;21.30;;;13.75;;
22201;SDS011;11266;51.522;6.302;2023-02-15T01:13:56;20.88;;;14.35;;
22201;SDS011;11266;51.522;6.302;2023-02-15T01:14:45;18.30;;;12.80;;
22201;SDS011;11266;51.522;6.302;2023-02-15T01:15:30;22.38;;;13.50;;
22201;SDS011;11266;51.522;6.302;2023-02-15T01:16:18;19.52;;;13.05;;
22201;SDS011;11266;51.522;6.302;2023-02-15T01:17:04;20.50;;;12.85;;
22201;SDS011;11266;51.522;6.302;2023-02-15T01:17:50;18.67;;;13.02;;
22201;SDS011;11266;51.522;6.302;2023-02-15T01:18:37;22.02;;;13.05;;
22201;SDS011;11266;51.522;6.302;2023-02-15T01:19:23;22.63;;;14.23;;
22201;SDS011;11266;51.522;6.302;2023-02-15T01:20:11;21.55;;;14.00;;
22201;SDS011;11266;51.522;6.302;2023-02-15T01:20:56;21.75;;;13.20;;
22201;SDS011;11266;51.522;6.302;2023-02-15T01:21:42;19.83;;;12.98;;
22201;SDS011;11266;51.522;6.302;2023-02-15T01:22:28;21.95;;;14.35;;
22201;SDS011;11266;51.522;6.302;2023-02-15T01:23:13;20.80;;;13.48;;
22201;SDS011;11266;51.522;6.302;2023-02-15T01:24:00;20.88;;;13.52;;
22201;SDS011;11266;51.522;6.302;2023-02-15T01:24:48;20.88;;;13.05;;
22201;SDS011;11266;51.522;6.302;2023-02-15T01:25:35;23.90;;;14.63;;
22201;SDS011;11266;51.522;6.302;2023-02-15T01:26:21;21.63;;;13.68;;
22201;SDS011;11266;51.522;6.302;2023-02-15T01:27:06;20.25;;;13.40;;
22201;SDS011;11266;51.522;6.302;2023-02-15T01:27:52;20.10;;;13.52;;
22201;SDS011;11266;51.522;6.302;2023-02-15T01:28:38;22.95;;;14.50;;
22201;SDS011;11266;51.522;6.302;2023-02-15T01:29:23;22.02;;;14.15;;
22201;SDS011;11266;51.522;6.302;2023-02-15T01:30:09;21.90;;;14.02;;
22201;SDS011;11266;51.522;6.302;2023-02-15T01:30:55;23.52;;;14.43;;
22201;SDS011;11266;51.522;6.302;2023-02-15T01:31:41;20.75;;;13.60;;
22201;SDS011;11266;51.522;6.302;2023-02-15T01:32:26;20.02;;;12.50;;
22201;SDS011;11266;51.522;6.302;2023-02-15T01:33:12;22.50;;;13.25;;
22201;SDS011;11266;51.522;6.302;2023-02-15T01:34:02;21.85;;;13.60;;
22201;SDS011;11266;51.522;6.302;2023-02-15T01:34:48;18.55;;;12.65;;
22201;SDS011;11266;51.522;6.302;2023-02-15T01:35:33;21.70;;;13.95;;
22201;SDS011;11266;51.522;6.302;2023-02-15T01:36:21;22.05;;;12.95;;
22201;SDS011;11266;51.522;6.302;2023-02-15T01:37:07;21.25;;;13.70;;
22201;SDS011;11266;51.522;6.302;2023-02-15T01:37:52;20.83;;;13.15;;
22201;SDS011;11266;51.522;6.302;2023-02-15T01:38:40;21.77;;;13.65;;
22201;SDS011;11266;51.522;6.302;2023-02-15T01:39:31;20.55;;;13.20;;
22201;SDS011;11266;51.522;6.302;2023-02-15T01:40:19;20.08;;;13.07;;
22201;SDS011;11266;51.522;6.302;2023-02-15T01:41:04;19.35;;;13.63;;
22201;SDS011;11266;51.522;6.302;2023-02-15T01:42:14;19.63;;;12.70;;
22201;SDS011;11266;51.522;6.302;2023-02-15T01:43:11;21.40;;;13.85;;
22201;SDS011;11266;51.522;6.302;2023-02-15T01:43:58;20.23;;;13.57;;
22201;SDS011;11266;51.522;6.302;2023-02-15T01:44:49;20.50;;;13.93;;
22201;SDS011;11266;51.522;6.302;2023-02-15T01:46:06;21.25;;;13.07;;
22201;SDS011;11266;51.522;6.302;2023-02-15T01:46:54;21.15;;;13.27;;
22201;SDS011;11266;51.522;6.302;2023-02-15T01:47:45;19.35;;;13.43;;
22201;SDS011;11266;51.522;6.302;2023-02-15T01:48:47;21.73;;;13.88;;
22201;SDS011;11266;51.522;6.302;2023-02-15T01:49:35;20.95;;;13.60;;
22201;SDS011;11266;51.522;6.302;2023-02-15T01:51:16;20.85;;;13.98;;
22201;SDS011;11266;51.522;6.302;2023-02-15T01:52:05;22.05;;;13.90;;
22201;SDS011;11266;51.522;6.302;2023-02-15T01:53:43;21.48;;;14.50;;
22201;SDS011;11266;51.522;6.302;2023-02-15T01:54:35;20.75;;;13.75;;
22201;SDS011;11266;51.522;6.302;2023-02-15T01:55:23;21.95;;;14.50;;
22201;SDS011;11266;51.522;6.302;2023-02-15T01:56:13;21.05;;;14.13;;
22201;SDS011;11266;51.522;6.302;2023-02-15T01:57:09;21.77;;;14.07;;
22201;SDS011;11266;51.522;6.302;2023-02-15T01:57:58;24.00;;;14.75;;
22201;SDS011;11266;51.522;6.302;2023-02-15T01:58:44;21.20;;;14.52;;
22201;SDS011;11266;51.522;6.302;2023-02-15T01:59:32;24.65;;;16.17;;
22201;SDS011;11266;51.522;6.302;2023-02-15T02:00:20;23.27;;;14.48;;
22201;SDS011;11266;51.522;6.302;2023-02-15T02:01:07;20.33;;;13.57;;
22201;SDS011;11266;51.522;6.302;2023-02-15T02:01:54;22.60;;;14.10;;
22201;SDS011;11266;51.522;6.302;2023-02-15T02:02:44;22.05;;;14.18;;
22201;SDS011;11266;51.522;6.302;2023-02-15T02:04:31;21.33;;;13.43;;
22201;SDS011;11266;51.522;6.302;2023-02-15T02:05:25;24.77;;;15.05;;
22201;SDS011;11266;51.522;6.302;2023-02-15T02:06:11;23.60;;;14.80;;
22201;SDS011;11266;51.522;6.302;2023-02-15T02:06:57;22.55;;;14.32;;
22201;SDS011;11266;51.522;6.302;2023-02-15T02:07:44;22.33;;;13.50;;
22201;SDS011;11266;51.522;6.302;2023-02-15T02:08:31;23.35;;;14.70;;
22201;SDS011;11266;51.522;6.302;2023-02-15T02:09:17;23.42;;;15.18;;
22201;SDS011;11266;51.522;6.302;2023-02-15T02:10:05;24.63;;;15.27;;
22201;SDS011;11266;51.522;6.302;2023-02-15T02:10:52;27.98;;;16.95;;
22201;SDS011;11266;51.522;6.302;2023-02-15T02:11:38;23.08;;;15.35;;
22201;SDS011;11266;51.522;6.302;2023-02-15T02:12:25;23.85;;;15.20;;
22201;SDS011;11266;51.522;6.302;2023-02-15T02:13:11;24.25;;;15.98;;
22201;SDS011;11266;51.522;6.302;2023-02-15T02:13:57;24.52;;;16.02;;
22201;SDS011;11266;51.522;6.302;2023-02-15T02:14:43;24.30;;;15.10;;
22201;SDS011;11266;51.522;6.302;2023-02-15T02:15:41;27.05;;;16.38;;
22201;SDS011;11266;51.522;6.302;2023-02-15T02:20:07;23.70;;;14.50;;
22201;SDS011;11266;51.522;6.302;2023-02-15T02:21:02;26.45;;;16.17;;
22201;SDS011;11266;51.522;6.302;2023-02-15T02:23:31;27.00;;;16.05;;
22201;SDS011;11266;51.522;6.302;2023-02-15T02:24:41;33.70;;;16.00;;
22201;SDS011;11266;51.522;6.302;2023-02-15T02:26:54;27.15;;;17.05;;
22201;SDS011;11266;51.522;6.302;2023-02-15T02:28:15;23.45;;;15.57;;
22201;SDS011;11266;51.522;6.302;2023-02-15T02:29:32;24.60;;;14.70;;
22201;SDS011;11266;51.522;6.302;2023-02-15T02:31:48;23.48;;;15.30;;
22201;SDS011;11266;51.522;6.302;2023-02-15T02:36:55;26.48;;;15.88;;
22201;SDS011;11266;51.522;6.302;2023-02-15T02:39:59;24.77;;;15.43;;
22201;SDS011;11266;51.522;6.302;2023-02-15T02:42:44;29.27;;;15.77;;
22201;SDS011;11266;51.522;6.302;2023-02-15T02:44:54;29.50;;;16.15;;
22201;SDS011;11266;51.522;6.302;2023-02-15T02:45:58;25.23;;;15.18;;
22201;SDS011;11266;51.522;6.302;2023-02-15T02:47:02;25.90;;;15.73;;
22201;SDS011;11266;51.522;6.302;2023-02-15T02:48:04;26.10;;;16.55;;
22201;SDS011;11266;51.522;6.302;2023-02-15T02:48:54;25.52;;;15.80;;
22201;SDS011;11266;51.522;6.302;2023-02-15T02:49:41;28.23;;;17.30;;
22201;SDS011;11266;51.522;6.302;2023-02-15T02:50:28;27.38;;;16.85;;
22201;SDS011;11266;51.522;6.302;2023-02-15T02:51:15;26.38;;;16.83;;
22201;SDS011;11266;51.522;6.302;2023-02-15T02:52:07;27.27;;;17.48;;
22201;SDS011;11266;51.522;6.302;2023-02-15T02:53:21;25.50;;;16.17;;
22201;SDS011;11266;51.522;6.302;2023-02-15T02:54:06;28.15;;;16.73;;
22201;SDS011;11266;51.522;6.302;2023-02-15T02:54:53;29.83;;;17.92;;
22201;SDS011;11266;51.522;6.302;2023-02-15T02:55:42;25.63;;;16.23;;
22201;SDS011;11266;51.522;6.302;2023-02-15T02:56:41;24.80;;;15.93;;
22201;SDS011;11266;51.522;6.302;2023-02-15T02:57:32;24.00;;;15.27;;
22201;SDS011;11266;51.522;6.302;2023-02-15T02:59:09;26.85;;;16.02;;
22201;SDS011;11266;51.522;6.302;2023-02-15T03:00:05;24.85;;;15.30;;
22201;SDS011;11266;51.522;6.302;2023-02-15T03:00:56;25.40;;;15.20;;
22201;SDS011;11266;51.522;6.302;2023-02-15T03:01:52;26.65;;;16.35;;
22201;SDS011;11266;51.522;6.302;2023-02-15T03:02:43;24.77;;;14.45;;
22201;SDS011;11266;51.522;6.302;2023-02-15T03:03:36;23.15;;;15.63;;
22201;SDS011;11266;51.522;6.302;2023-02-15T03:04:29;23.77;;;16.25;;
22201;SDS011;11266;51.522;6.302;2023-02-15T03:05:22;25.40;;;15.35;;
22201;SDS011;11266;51.522;6.302;2023-02-15T03:06:13;24.80;;;15.65;;
22201;SDS011;11266;51.522;6.302;2023-02-15T03:07:05;25.60;;;15.85;;
22201;SDS011;11266;51.522;6.302;2023-02-15T03:07:54;23.67;;;14.60;;
22201;SDS011;11266;51.522;6.302;2023-02-15T03:08:42;25.02;;;15.70;;
22201;SDS011;11266;51.522;6.302;2023-02-15T03:09:31;26.25;;;16.33;;
22201;SDS011;11266;51.522;6.302;2023-02-15T03:10:29;26.40;;;16.27;;
22201;SDS011;11266;51.522;6.302;2023-02-15T03:11:15;27.85;;;16.70;;
22201;SDS011;11266;51.522;6.302;2023-02-15T03:12:01;26.60;;;17.08;;
22201;SDS011;11266;51.522;6.302;2023-02-15T03:12:50;25.00;;;15.90;;
22201;SDS011;11266;51.522;6.302;2023-02-15T03:13:37;22.05;;;14.75;;
22201;SDS011;11266;51.522;6.302;2023-02-15T03:14:23;25.00;;;15.70;;
22201;SDS011;11266;51.522;6.302;2023-02-15T03:15:10;21.65;;;14.18;;
22201;SDS011;11266;51.522;6.302;2023-02-15T03:16:00;24.48;;;16.48;;
22201;SDS011;11266;51.522;6.302;2023-02-15T03:17:07;23.92;;;15.38;;
22201;SDS011;11266;51.522;6.302;2023-02-15T03:17:58;25.05;;;15.68;;
22201;SDS011;11266;51.522;6.302;2023-02-15T03:19:06;25.70;;;16.17;;
22201;SDS011;11266;51.522;6.302;2023-02-15T03:19:54;25.85;;;15.68;;
22201;SDS011;11266;51.522;6.302;2023-02-15T03:20:42;25.48;;;16.27;;
22201;SDS011;11266;51.522;6.302;2023-02-15T03:21:51;27.85;;;16.77;;
22201;SDS011;11266;51.522;6.302;2023-02-15T03:22:44;24.15;;;14.70;;
22201;SDS011;11266;51.522;6.302;2023-02-15T03:23:34;22.88;;;15.52;;
22201;SDS011;11266;51.522;6.302;2023-02-15T03:24:23;26.17;;;16.38;;
22201;SDS011;11266;51.522;6.302;2023-02-15T03:26:06;25.05;;;15.30;;
22201;SDS011;11266;51.522;6.302;2023-02-15T03:26:53;23.88;;;15.10;;
22201;SDS011;11266;51.522;6.302;2023-02-15T03:27:40;24.27;;;15.65;;
22201;SDS011;11266;51.522;6.302;2023-02-15T03:28:33;29.40;;;17.50;;
22201;SDS011;11266;51.522;6.302;2023-02-15T03:29:24;22.13;;;15.68;;
22201;SDS011;11266;51.522;6.302;2023-02-15T03:30:12;23.05;;;15.43;;
22201;SDS011;11266;51.522;6.302;2023-02-15T03:31:03;27.98;;;16.48;;
22201;SDS011;11266;51.522;6.302;2023-02-15T03:31:53;23.88;;;15.35;;
22201;SDS011;11266;51.522;6.302;2023-02-15T03:32:43;26.35;;;16.75;;
22201;SDS011;11266;51.522;6.302;2023-02-15T03:33:32;27.23;;;15.75;;
22201;SDS011;11266;51.522;6.302;2023-02-15T03:34:20;26.25;;;16.27;;
22201;SDS011;11266;51.522;6.302;2023-02-15T03:35:06;24.35;;;15.43;;
22201;SDS011;11266;51.522;6.302;2023-02-15T03:36:08;24.60;;;15.90;;
22201;SDS011;11266;51.522;6.302;2023-02-15T03:38:08;22.73;;;14.85;;
22201;SDS011;11266;51.522;6.302;2023-02-15T03:39:07;24.17;;;14.90;;
22201;SDS011;11266;51.522;6.302;2023-02-15T03:41:36;25.90;;;15.77;;
22201;SDS011;11266;51.522;6.302;2023-02-15T03:42:28;24.20;;;15.55;;
22201;SDS011;11266;51.522;6.302;2023-02-15T03:43:27;25.75;;;16.88;;
22201;SDS011;11266;51.522;6.302;2023-02-15T03:44:37;27.92;;;16.88;;
22201;SDS011;11266;51.522;6.302;2023-02-15T03:45:33;24.55;;;15.95;;
22201;SDS011;11266;51.522;6.302;2023-02-15T03:46:25;24.13;;;16.10;;
22201;SDS011;11266;51.522;6.302;2023-02-15T03:47:19;24.40;;;15.40;;
22201;SDS011;11266;51.522;6.302;2023-02-15T03:48:08;25.42;;;15.77;;
22201;SDS011;11266;51.522;6.302;2023-02-15T03:48:55;26.75;;;17.00;;
22201;SDS011;11266;51.522;6.302;2023-02-15T03:49:59;26.88;;;17.40;;
22201;SDS011;11266;51.522;6.302;2023-02-15T03:51:17;34.30;;;16.52;;
22201;SDS011;11266;51.522;6.302;2023-02-15T03:52:18;27.88;;;17.98;;
22201;SDS011;11266;51.522;6.302;2023-02-15T03:53:08;27.33;;;16.83;;
22201;SDS011;11266;51.522;6.302;2023-02-15T03:53:56;28.27;;;16.70;;
22201;SDS011;11266;51.522;6.302;2023-02-15T03:54:43;25.83;;;17.65;;
22201;SDS011;11266;51.522;6.302;2023-02-15T03:55:31;29.15;;;17.23;;
22201;SDS011;11266;51.522;6.302;2023-02-15T03:56:21;28.05;;;17.75;;
22201;SDS011;11266;51.522;6.302;2023-02-15T03:57:11;28.13;;;17.08;;
22201;SDS011;11266;51.522;6.302;2023-02-15T03:58:16;26.92;;;16.88;;
22201;SDS011;11266;51.522;6.302;2023-02-15T03:59:20;28.10;;;17.20;;
22201;SDS011;11266;51.522;6.302;2023-02-15T04:00:24;26.70;;;17.20;;
22201;SDS011;11266;51.522;6.302;2023-02-15T04:03:01;28.10;;;17.15;;
22201;SDS011;11266;51.522;6.302;2023-02-15T04:04:17;30.95;;;18.00;;
22201;SDS011;11266;51.522;6.302;2023-02-15T04:05:06;26.42;;;16.98;;
22201;SDS011;11266;51.522;6.302;2023-02-15T04:05:51;25.50;;;16.40;;
22201;SDS011;11266;51.522;6.302;2023-02-15T04:06:37;29.60;;;18.65;;
22201;SDS011;11266;51.522;6.302;2023-02-15T04:07:23;25.65;;;16.88;;
22201;SDS011;11266;51.522;6.302;2023-02-15T04:08:09;25.52;;;17.08;;
22201;SDS011;11266;51.522;6.302;2023-02-15T04:08:55;27.50;;;17.27;;
22201;SDS011;11266;51.522;6.302;2023-02-15T04:09:59;27.05;;;17.45;;
22201;SDS011;11266;51.522;6.302;2023-02-15T04:11:03;30.23;;;18.23;;
22201;SDS011;11266;51.522;6.302;2023-02-15T04:11:49;26.63;;;17.40;;
22201;SDS011;11266;51.522;6.302;2023-02-15T04:12:34;27.85;;;16.50;;
22201;SDS011;11266;51.522;6.302;2023-02-15T04:13:23;28.83;;;17.92;;
22201;SDS011;11266;51.522;6.302;2023-02-15T04:14:14;27.08;;;17.70;;
22201;SDS011;11266;51.522;6.302;2023-02-15T04:15:18;30.17;;;18.17;;
22201;SDS011;11266;51.522;6.302;2023-02-15T04:16:23;31.27;;;18.42;;
22201;SDS011;11266;51.522;6.302;2023-02-15T04:17:09;31.50;;;18.25;;
22201;SDS011;11266;51.522;6.302;2023-02-15T04:17:55;27.90;;;18.08;;
22201;SDS011;11266;51.522;6.302;2023-02-15T04:18:41;26.33;;;17.38;;
22201;SDS011;11266;51.522;6.302;2023-02-15T04:19:47;29.90;;;17.92;;
22201;SDS011;11266;51.522;6.302;2023-02-15T04:20:51;29.30;;;17.77;;
22201;SDS011;11266;51.522;6.302;2023-02-15T04:21:55;27.77;;;16.73;;
22201;SDS011;11266;51.522;6.302;2023-02-15T04:22:59;29.67;;;17.83;;
22201;SDS011;11266;51.522;6.302;2023-02-15T04:24:06;26.60;;;16.67;;
22201;SDS011;11266;51.522;6.302;2023-02-15T04:25:13;28.35;;;17.35;;
22201;SDS011;11266;51.522;6.302;2023-02-15T04:26:02;35.85;;;18.40;;
22201;SDS011;11266;51.522;6.302;2023-02-15T04:26:49;28.88;;;18.08;;
22201;SDS011;11266;51.522;6.302;2023-02-15T04:27:38;26.48;;;16.80;;
22201;SDS011;11266;51.522;6.302;2023-02-15T04:28:25;31.52;;;18.55;;
22201;SDS011;11266;51.522;6.302;2023-02-15T04:29:11;28.15;;;17.98;;
22201;SDS011;11266;51.522;6.302;2023-02-15T04:29:57;27.52;;;18.15;;
22201;SDS011;11266;51.522;6.302;2023-02-15T04:30:42;25.92;;;17.30;;
22201;SDS011;11266;51.522;6.302;2023-02-15T04:31:28;30.10;;;18.92;;
22201;SDS011;11266;51.522;6.302;2023-02-15T04:32:16;31.30;;;18.90;;
22201;SDS011;11266;51.522;6.302;2023-02-15T04:33:01;30.42;;;18.95;;
22201;SDS011;11266;51.522;6.302;2023-02-15T04:33:47;31.17;;;19.75;;
22201;SDS011;11266;51.522;6.302;2023-02-15T04:34:33;33.42;;;19.38;;
22201;SDS011;11266;51.522;6.302;2023-02-15T04:35:18;31.00;;;18.85;;
22201;SDS011;11266;51.522;6.302;2023-02-15T04:36:04;25.75;;;16.33;;
22201;SDS011;11266;51.522;6.302;2023-02-15T04:36:50;29.65;;;19.58;;
22201;SDS011;11266;51.522;6.302;2023-02-15T04:37:36;29.08;;;18.25;;
22201;SDS011;11266;51.522;6.302;2023-02-15T04:38:22;31.15;;;18.15;;
22201;SDS011;11266;51.522;6.302;2023-02-15T04:39:11;31.67;;;19.50;;
22201;SDS011;11266;51.522;6.302;2023-02-15T04:39:58;30.80;;;18.25;;
22201;SDS011;11266;51.522;6.302;2023-02-15T04:40:44;27.33;;;18.27;;
22201;SDS011;11266;51.522;6.302;2023-02-15T04:41:36;28.60;;;17.85;;
22201;SDS011;11266;51.522;6.302;2023-02-15T04:43:12;28.33;;;18.42;;
22201;SDS011;11266;51.522;6.302;2023-02-15T04:43:57;28.88;;;18.80;;
22201;SDS011;11266;51.522;6.302;2023-02-15T04:44:46;27.92;;;17.75;;
22201;SDS011;11266;51.522;6.302;2023-02-15T04:45:36;28.00;;;17.85;;
22201;SDS011;11266;51.522;6.302;2023-02-15T04:46:21;28.05;;;18.27;;
22201;SDS011;11266;51.522;6.302;2023-02-15T04:47:08;26.95;;;17.70;;
22201;SDS011;11266;51.522;6.302;2023-02-15T04:47:53;30.08;;;19.48;;
22201;SDS011;11266;51.522;6.302;2023-02-15T04:48:39;31.25;;;19.50;;
22201;SDS011;11266;51.522;6.302;2023-02-15T04:49:25;27.65;;;17.50;;
22201;SDS011;11266;51.522;6.302;2023-02-15T04:50:10;29.95;;;17.67;;
22201;SDS011;11266;51.522;6.302;2023-02-15T04:50:56;30.40;;;18.92;;
22201;SDS011;11266;51.522;6.302;2023-02-15T04:51:44;27.10;;;17.10;;
22201;SDS011;11266;51.522;6.302;2023-02-15T04:52:32;30.75;;;18.52;;
22201;SDS011;11266;51.522;6.302;2023-02-15T04:53:18;28.35;;;18.33;;
22201;SDS011;11266;51.522;6.302;2023-02-15T04:54:06;29.55;;;18.33;;
22201;SDS011;11266;51.522;6.302;2023-02-15T04:54:51;29.23;;;17.77;;
22201;SDS011;11266;51.522;6.302;2023-02-15T04:55:37;27.05;;;17.58;;
22201;SDS011;11266;51.522;6.302;2023-02-15T04:56:26;28.63;;;18.42;;
22201;SDS011;11266;51.522;6.302;2023-02-15T04:57:11;33.35;;;20.58;;
22201;SDS011;11266;51.522;6.302;2023-02-15T04:57:59;29.95;;;19.25;;
22201;SDS011;11266;51.522;6.302;2023-02-15T04:58:47;28.40;;;17.67;;
22201;SDS011;11266;51.522;6.302;2023-02-15T04:59:33;29.38;;;18.20;;
22201;SDS011;11266;51.522;6.302;2023-02-15T05:00:19;29.50;;;18.77;;
22201;SDS011;11266;51.522;6.302;2023-02-15T05:01:05;28.00;;;17.58;;
22201;SDS011;11266;51.522;6.302;2023-02-15T05:01:51;31.88;;;19.25;;
22201;SDS011;11266;51.522;6.302;2023-02-15T05:02:37;30.17;;;19.00;;
22201;SDS011;11266;51.522;6.302;2023-02-15T05:03:23;30.77;;;19.25;;
22201;SDS011;11266;51.522;6.302;2023-02-15T05:04:09;31.10;;;19.92;;
22201;SDS011;11266;51.522;6.302;2023-02-15T05:04:54;27.88;;;17.98;;
22201;SDS011;11266;51.522;6.302;2023-02-15T05:05:40;28.55;;;18.33;;
22201;SDS011;11266;51.522;6.302;2023-02-15T05:06:26;30.02;;;18.50;;
22201;SDS011;11266;51.522;6.302;2023-02-15T05:07:12;27.75;;;17.98;;
22201;SDS011;11266;51.522;6.302;2023-02-15T05:07:57;27.02;;;18.17;;
22201;SDS011;11266;51.522;6.302;2023-02-15T05:08:43;31.90;;;17.95;;
22201;SDS011;11266;51.522;6.302;2023-02-15T05:09:28;30.15;;;18.95;;
22201;SDS011;11266;51.522;6.302;2023-02-15T05:10:14;27.38;;;17.55;;
22201;SDS011;11266;51.522;6.302;2023-02-15T05:11:00;26.63;;;17.25;;
22201;SDS011;11266;51.522;6.302;2023-02-15T05:11:45;28.38;;;18.38;;
22201;SDS011;11266;51.522;6.302;2023-02-15T05:12:31;28.38;;;18.38;;
22201;SDS011;11266;51.522;6.302;2023-02-15T05:13:17;30.65;;;18.83;;
22201;SDS011;11266;51.522;6.302;2023-02-15T05:14:02;29.45;;;18.73;;
22201;SDS011;11266;51.522;6.302;2023-02-15T05:14:48;28.77;;;17.83;;
22201;SDS011;11266;51.522;6.302;2023-02-15T05:15:34;30.60;;;18.10;;
22201;SDS011;11266;51.522;6.302;2023-02-15T05:16:19;27.77;;;17.13;;
22201;SDS011;11266;51.522;6.302;2023-02-15T05:17:05;28.73;;;18.27;;